Airfield :







YOU CAN JOIN US ON...

 
LOGIN :

Register | Disclaimer

   EN    FR    IT 

 









Legend :    VFR   Marginal VFR   IFR   Intensive IFR   Very Intensive IFR
Visi :
Ceiling :
>= 8 km
>= 3000ft
5 to 8 km
1000 to 3000 ft
1500m to 5 km
500 to 1000 ft
800 to 1500m
200 to 500 ft
< 800m
< 200 ft
Symbols :   Thunderstorms  Fog  Heavy snow  Heavy precipitations  Wind > 20 kt






- Airport Elevation : 377 ft
- IATA code : YPS


CYPD - Port Hawkesbury

CURRENT METAR :
  • 262119Z AUTO 12016G23KT 5SM -RA BR OVC004 02/02 A2972 RMK PRESFR SLP071

EXPIRED METARs :
  • 262116Z AUTO 12015G24KT 6SM -RA BR OVC004 02/02 A2972 RMK SLP073
  • 262100Z AUTO 11011G22KT 7SM OVC004 02/02 A2974 RMK SLP078
  • 262024Z AUTO 12011G22KT 9SM -RA OVC004 02/02 A2976 RMK PRESFR SLP086
  • 262000Z AUTO 11016G22KT 9SM OVC006 03/02 A2978 RMK SLP091
  • 261951Z AUTO 11018G24KT 9SM OVC006 03/02 A2978 RMK PRESFR SLP092
  • 261918Z AUTO 10015G21KT 9SM -RA OVC006 02/01 A2981 RMK SLP102

TAF N/A



MET'MAP, your aeronautical weather chart ! - Copyright ORBIFLY December 2007 - Disclaimer

ORBIFLY MET'MAP TEAM :

Programming & Development : Alexandra Zaïnal
Concept & original design : Baudouin d'Aumeries
Assistance for programming : Marc-Olivier Méhu
Technical & hardware support : Manuel Goepfert

Contact : metmap@orbifly.com




SOURCES & CREDITS :

   NOAA